createdAt,value
2023-01-31T00:01:38.673Z,3.78
2023-01-31T00:04:09.291Z,4.20
2023-01-31T00:06:42.151Z,3.60
2023-01-31T00:09:11.309Z,4.20
2023-01-31T00:11:39.225Z,4.07
2023-01-31T00:14:08.292Z,4.03
2023-01-31T00:16:36.083Z,3.88
2023-01-31T00:19:04.239Z,4.70
2023-01-31T00:21:32.178Z,4.20
2023-01-31T00:24:00.167Z,4.57
2023-01-31T00:26:34.887Z,4.55
2023-01-31T00:29:03.720Z,4.63
2023-01-31T00:31:33.480Z,4.68
2023-01-31T00:34:01.233Z,4.45
2023-01-31T00:36:32.184Z,4.45
2023-01-31T00:39:01.321Z,4.60
2023-01-31T00:41:30.373Z,4.50
2023-01-31T00:43:58.179Z,4.75
2023-01-31T00:46:26.079Z,5.07
2023-01-31T00:48:54.725Z,4.63
2023-01-31T00:51:23.022Z,4.20
2023-01-31T00:53:51.401Z,4.95
2023-01-31T00:56:22.913Z,4.93
2023-01-31T00:58:50.686Z,4.53
2023-01-31T01:01:22.335Z,4.80
2023-01-31T01:03:49.940Z,4.72
2023-01-31T01:06:17.523Z,4.97
2023-01-31T01:08:45.635Z,4.28
2023-01-31T01:11:19.670Z,4.03
2023-01-31T01:13:47.543Z,4.50
2023-01-31T01:16:18.290Z,5.15
2023-01-31T01:18:48.275Z,4.47
2023-01-31T01:21:23.685Z,4.55
2023-01-31T01:23:51.417Z,4.50
2023-01-31T01:26:25.431Z,4.05
2023-01-31T01:28:54.629Z,4.85
2023-01-31T01:31:22.672Z,4.32
2023-01-31T01:33:50.345Z,4.68
2023-01-31T01:36:22.163Z,4.30
2023-01-31T01:38:49.875Z,4.18
2023-01-31T01:41:18.330Z,4.30
2023-01-31T01:43:54.887Z,4.50
2023-01-31T01:46:31.697Z,4.35
2023-01-31T01:49:06.952Z,4.53
2023-01-31T01:51:35.239Z,4.32
2023-01-31T01:54:06.963Z,4.72
2023-01-31T01:56:39.260Z,4.60
2023-01-31T01:59:12.383Z,4.47
2023-01-31T02:01:40.282Z,4.50
2023-01-31T02:04:12.004Z,4.72
2023-01-31T02:06:40.225Z,4.60
2023-01-31T02:09:12.996Z,6.80
2023-01-31T02:11:40.317Z,4.53
2023-01-31T02:14:10.604Z,4.57
2023-01-31T02:16:38.173Z,4.95
2023-01-31T02:19:17.048Z,4.53
2023-01-31T02:21:54.721Z,4.15
2023-01-31T02:25:10.173Z,4.47
2023-01-31T02:27:43.170Z,4.15
2023-01-31T02:30:34.987Z,4.13
2023-01-31T02:33:23.659Z,4.15
2023-01-31T02:36:15.018Z,4.45
2023-01-31T02:39:10.035Z,4.50
2023-01-31T02:42:05.881Z,4.72
2023-01-31T02:44:59.521Z,4.00
2023-01-31T02:47:39.225Z,4.53
2023-01-31T02:50:13.284Z,4.93
2023-01-31T02:52:50.804Z,4.18
2023-01-31T02:55:42.394Z,4.38
2023-01-31T02:58:13.221Z,5.38
2023-01-31T03:00:45.367Z,5.00
2023-01-31T03:03:28.747Z,5.68
2023-01-31T03:06:12.451Z,5.63
2023-01-31T03:08:44.700Z,4.90
2023-01-31T03:11:12.599Z,4.45
2023-01-31T03:13:58.015Z,4.50
2023-01-31T03:17:13.600Z,4.80
2023-01-31T03:20:05.695Z,4.45
2023-01-31T03:22:40.535Z,4.75
2023-01-31T03:25:10.346Z,5.53
2023-01-31T03:27:40.705Z,4.80
2023-01-31T03:30:35.008Z,4.85
2023-01-31T03:33:11.014Z,4.47
2023-01-31T03:35:41.086Z,5.63
2023-01-31T03:38:25.731Z,5.10
2023-01-31T03:41:07.930Z,5.72
2023-01-31T03:43:55.903Z,5.00
2023-01-31T03:46:36.113Z,5.18
2023-01-31T03:49:09.054Z,5.10
2023-01-31T03:51:42.304Z,5.45
2023-01-31T03:54:14.942Z,5.10
2023-01-31T03:56:52.871Z,5.20
2023-01-31T03:59:26.559Z,5.35
2023-01-31T04:01:57.795Z,4.90
2023-01-31T04:04:38.406Z,5.50
2023-01-31T04:07:06.918Z,5.05
2023-01-31T04:09:34.773Z,5.00
2023-01-31T04:12:03.033Z,5.00
2023-01-31T04:14:30.695Z,4.82
2023-01-31T04:16:58.188Z,5.28
2023-01-31T04:19:25.395Z,5.00
2023-01-31T04:21:52.700Z,4.85
2023-01-31T04:24:20.134Z,5.68
2023-01-31T04:26:47.400Z,5.57
2023-01-31T04:29:14.733Z,5.00
2023-01-31T04:31:42.531Z,5.57
2023-01-31T04:34:10.348Z,4.93
2023-01-31T04:36:37.907Z,4.90
2023-01-31T04:39:05.231Z,5.03
2023-01-31T04:41:32.242Z,5.00
2023-01-31T04:43:59.563Z,5.43
2023-01-31T04:46:27.145Z,4.93
2023-01-31T04:48:54.714Z,5.28
2023-01-31T04:51:22.078Z,5.15
2023-01-31T04:53:49.265Z,4.90
2023-01-31T04:56:16.517Z,4.97
2023-01-31T04:58:44.412Z,5.25
2023-01-31T05:01:12.195Z,5.80
2023-01-31T05:03:39.624Z,5.47
2023-01-31T05:06:07.314Z,5.28
2023-01-31T05:08:34.930Z,4.97
2023-01-31T05:11:04.440Z,5.45
2023-01-31T05:13:32.936Z,5.90
2023-01-31T05:16:00.263Z,5.97
2023-01-31T05:18:27.426Z,5.82
2023-01-31T05:20:54.874Z,5.82
2023-01-31T05:23:21.911Z,5.90
2023-01-31T05:25:50.845Z,6.35
2023-01-31T05:28:18.898Z,6.07
2023-01-31T05:30:46.619Z,6.13
2023-01-31T05:33:14.131Z,5.90
2023-01-31T05:35:42.450Z,5.90
2023-01-31T05:38:09.990Z,5.97
2023-01-31T05:40:37.441Z,5.97
2023-01-31T05:43:04.726Z,6.05
2023-01-31T05:45:32.732Z,5.60
2023-01-31T05:48:01.237Z,5.57
2023-01-31T05:50:28.804Z,5.75
2023-01-31T05:52:59.966Z,5.32
2023-01-31T05:55:28.179Z,5.07
2023-01-31T05:57:55.747Z,5.18
2023-01-31T06:00:23.657Z,4.97
2023-01-31T06:02:51.269Z,5.70
2023-01-31T06:05:19.286Z,5.53
2023-01-31T06:07:46.653Z,5.70
2023-01-31T06:10:13.866Z,5.57
2023-01-31T06:12:41.378Z,5.18
2023-01-31T06:15:08.986Z,5.57
2023-01-31T06:17:36.550Z,5.32
2023-01-31T06:20:04.880Z,5.57
2023-01-31T06:22:32.965Z,5.63
2023-01-31T06:25:00.258Z,5.15
2023-01-31T06:27:27.486Z,5.30
2023-01-31T06:29:54.796Z,4.63
2023-01-31T06:32:22.200Z,4.93
2023-01-31T06:34:49.265Z,4.90
2023-01-31T06:37:16.526Z,5.45
2023-01-31T06:39:43.796Z,5.05
2023-01-31T06:42:11.414Z,5.07
2023-01-31T06:44:39.001Z,5.35
2023-01-31T06:47:06.513Z,4.60
2023-01-31T06:49:33.856Z,4.80
2023-01-31T06:52:01.089Z,5.57
2023-01-31T06:54:28.336Z,6.10
2023-01-31T06:56:56.258Z,5.97
2023-01-31T06:59:23.824Z,4.53
2023-01-31T07:01:51.294Z,5.28
2023-01-31T07:04:18.639Z,4.60
2023-01-31T07:06:45.923Z,4.70
2023-01-31T07:09:13.097Z,4.75
2023-01-31T07:11:40.354Z,4.35
2023-01-31T07:14:07.794Z,4.20
2023-01-31T07:16:35.130Z,4.43
2023-01-31T07:19:02.287Z,4.50
2023-01-31T07:21:30.165Z,4.40
2023-01-31T07:23:57.655Z,4.45
2023-01-31T07:26:25.071Z,5.05
2023-01-31T07:28:53.684Z,4.20
2023-01-31T07:31:21.047Z,4.95
2023-01-31T07:33:48.682Z,4.93
2023-01-31T07:36:21.678Z,6.25
2023-01-31T07:38:49.280Z,4.80
2023-01-31T07:41:16.854Z,4.70
2023-01-31T07:43:44.220Z,4.40
2023-01-31T07:46:11.595Z,4.35
2023-01-31T07:48:39.472Z,4.03
2023-01-31T07:51:07.925Z,4.40
2023-01-31T07:53:42.258Z,3.97
2023-01-31T07:56:15.172Z,4.10
2023-01-31T07:58:44.863Z,3.90
2023-01-31T08:01:36.481Z,3.97
2023-01-31T08:04:19.320Z,4.40
2023-01-31T08:06:49.372Z,4.35
2023-01-31T08:09:16.323Z,5.25
2023-01-31T08:11:43.417Z,4.53
2023-01-31T08:14:10.831Z,4.13
2023-01-31T08:16:38.734Z,3.88
2023-01-31T08:19:06.626Z,5.30
2023-01-31T08:21:33.943Z,3.88
2023-01-31T08:24:01.330Z,4.10
2023-01-31T08:26:28.636Z,3.53
2023-01-31T08:28:56.860Z,4.05
2023-01-31T08:31:26.490Z,3.42
2023-01-31T08:33:55.035Z,3.60
2023-01-31T08:36:29.529Z,3.53
2023-01-31T08:41:26.775Z,4.95
2023-01-31T08:43:58.106Z,3.08
2023-01-31T08:46:30.642Z,3.10
2023-01-31T08:48:59.124Z,3.00
2023-01-31T08:51:26.758Z,3.38
2023-01-31T08:53:54.548Z,3.42
2023-01-31T08:56:25.569Z,3.25
2023-01-31T08:58:54.253Z,3.50
2023-01-31T09:01:22.725Z,3.85
2023-01-31T09:03:50.884Z,3.63
2023-01-31T09:06:21.049Z,3.15
2023-01-31T09:08:48.475Z,2.75
2023-01-31T09:11:19.737Z,3.20
2023-01-31T09:13:52.365Z,3.20
2023-01-31T09:16:21.285Z,3.03
2023-01-31T09:18:48.779Z,2.90
2023-01-31T09:21:19.139Z,3.85
2023-01-31T09:23:47.902Z,3.20
2023-01-31T09:26:16.019Z,2.83
2023-01-31T09:28:44.524Z,3.15
2023-01-31T09:31:14.790Z,3.60
2023-01-31T09:33:42.753Z,3.25
2023-01-31T09:36:14.588Z,2.88
2023-01-31T09:38:42.247Z,3.35
2023-01-31T09:41:24.763Z,3.10
2023-01-31T09:44:04.753Z,3.60
2023-01-31T09:46:38.865Z,3.03
2023-01-31T09:49:14.290Z,3.10
2023-01-31T09:51:41.709Z,3.42
2023-01-31T09:54:19.575Z,3.30
2023-01-31T09:56:59.026Z,4.00
2023-01-31T09:59:36.998Z,3.28
2023-01-31T10:02:28.588Z,3.17
2023-01-31T10:05:35.002Z,3.05
2023-01-31T10:08:05.003Z,3.10
2023-01-31T10:10:45.895Z,2.72
2023-01-31T10:13:30.373Z,2.67
2023-01-31T10:16:19.729Z,2.03
2023-01-31T10:18:52.088Z,2.60
2023-01-31T10:21:25.805Z,3.20
2023-01-31T10:24:11.788Z,2.58
2023-01-31T10:26:42.420Z,2.42
2023-01-31T10:29:29.675Z,2.20
2023-01-31T10:32:02.216Z,2.35
2023-01-31T10:34:34.961Z,2.58
2023-01-31T10:37:10.512Z,2.58
2023-01-31T10:39:44.766Z,2.58
2023-01-31T10:42:17.510Z,2.58
2023-01-31T10:44:55.125Z,2.40
2023-01-31T10:47:30.583Z,2.17
2023-01-31T10:49:57.915Z,2.67
2023-01-31T10:52:49.577Z,2.78
2023-01-31T10:55:40.189Z,2.55
2023-01-31T10:58:15.383Z,2.60
2023-01-31T11:00:43.880Z,2.70
2023-01-31T11:03:13.454Z,2.60
2023-01-31T11:05:52.224Z,2.60
2023-01-31T11:08:36.610Z,2.28
2023-01-31T11:11:16.260Z,2.50
2023-01-31T11:13:59.815Z,2.20
2023-01-31T11:16:38.973Z,2.38
2023-01-31T11:19:23.446Z,2.20
2023-01-31T11:21:54.794Z,3.40
2023-01-31T11:24:24.282Z,3.15
2023-01-31T11:27:00.306Z,2.17
2023-01-31T11:29:36.111Z,2.42
2023-01-31T11:32:12.849Z,2.10
2023-01-31T11:34:55.098Z,2.08
2023-01-31T11:37:22.516Z,1.90
2023-01-31T11:39:57.403Z,2.00
2023-01-31T11:42:25.132Z,1.92
2023-01-31T11:45:17.549Z,1.90
2023-01-31T11:47:54.911Z,2.17
2023-01-31T11:50:25.630Z,2.22
2023-01-31T11:52:59.802Z,2.33
2023-01-31T11:55:28.422Z,2.08
2023-01-31T11:57:59.408Z,2.20
2023-01-31T12:00:31.151Z,2.35
2023-01-31T12:03:14.373Z,1.75
2023-01-31T12:05:45.438Z,1.83
2023-01-31T12:08:38.751Z,1.90
2023-01-31T12:11:21.131Z,1.92
2023-01-31T12:13:49.628Z,2.05
2023-01-31T12:16:26.781Z,1.85
2023-01-31T12:19:03.935Z,2.22
2023-01-31T12:22:02.101Z,1.90
2023-01-31T12:24:40.827Z,2.30
2023-01-31T12:27:32.981Z,2.13
2023-01-31T12:30:27.596Z,2.15
2023-01-31T12:33:16.174Z,2.40
2023-01-31T12:36:02.434Z,2.13
2023-01-31T12:39:07.278Z,2.22
2023-01-31T12:42:13.428Z,1.90
2023-01-31T12:44:55.181Z,2.70
2023-01-31T12:47:48.916Z,2.38
2023-01-31T12:50:36.694Z,2.65
2023-01-31T12:53:10.176Z,2.45
2023-01-31T12:55:58.884Z,2.25
2023-01-31T12:58:45.540Z,2.33
2023-01-31T13:01:15.413Z,2.60
2023-01-31T13:03:56.362Z,2.47
2023-01-31T13:06:33.397Z,2.08
2023-01-31T13:09:09.618Z,2.30
2023-01-31T13:11:57.167Z,2.30
2023-01-31T13:14:27.984Z,2.40
2023-01-31T13:17:00.300Z,2.22
2023-01-31T13:19:34.559Z,2.42
2023-01-31T13:22:23.548Z,2.60
2023-01-31T13:25:17.433Z,2.60
2023-01-31T13:28:03.917Z,2.90
2023-01-31T13:30:40.953Z,2.40
2023-01-31T13:33:27.988Z,2.53
2023-01-31T13:36:21.608Z,2.65
2023-01-31T13:38:49.886Z,2.92
2023-01-31T13:41:32.162Z,2.85
2023-01-31T13:44:02.267Z,2.85
2023-01-31T13:46:42.294Z,3.35
2023-01-31T13:49:39.758Z,3.70
2023-01-31T13:52:15.468Z,3.85
2023-01-31T13:54:50.489Z,2.80
2023-01-31T13:57:34.165Z,3.38
2023-01-31T14:00:36.886Z,3.05
2023-01-31T14:03:12.275Z,3.00
2023-01-31T14:05:49.281Z,3.33
2023-01-31T14:08:50.407Z,3.13
2023-01-31T14:11:17.755Z,3.20
2023-01-31T14:13:47.681Z,2.97
2023-01-31T14:16:36.673Z,3.60
2023-01-31T14:19:06.063Z,2.92
2023-01-31T14:21:35.935Z,3.13
2023-01-31T14:24:13.568Z,3.10
2023-01-31T14:26:44.595Z,3.20
2023-01-31T14:29:24.417Z,2.95
2023-01-31T14:31:54.948Z,3.00
2023-01-31T14:34:30.887Z,2.90
2023-01-31T14:37:36.055Z,3.55
2023-01-31T14:42:43.391Z,3.20
2023-01-31T14:45:30.968Z,3.83
2023-01-31T14:48:38.714Z,3.50
2023-01-31T14:51:31.723Z,3.40
2023-01-31T14:54:19.338Z,3.60
2023-01-31T14:56:54.872Z,3.08
2023-01-31T14:59:37.167Z,3.20
2023-01-31T15:02:37.951Z,3.38
2023-01-31T15:05:35.342Z,3.20
2023-01-31T15:08:11.700Z,3.42
2023-01-31T15:11:03.619Z,3.17
2023-01-31T15:13:47.591Z,2.95
2023-01-31T15:16:30.648Z,3.47
2023-01-31T15:19:07.605Z,3.25
2023-01-31T15:21:53.407Z,3.80
2023-01-31T15:24:30.068Z,3.72
2023-01-31T15:26:59.365Z,3.33
2023-01-31T15:29:33.474Z,3.65
2023-01-31T15:32:21.293Z,3.25
2023-01-31T15:35:06.891Z,3.45
2023-01-31T15:37:36.983Z,3.35
2023-01-31T15:40:07.122Z,3.22
2023-01-31T15:42:34.940Z,3.00
2023-01-31T15:45:17.809Z,3.20
2023-01-31T15:47:56.046Z,3.25
2023-01-31T15:50:23.332Z,3.28
2023-01-31T15:52:50.585Z,3.42
2023-01-31T15:55:20.013Z,3.20
2023-01-31T15:57:58.335Z,3.63
2023-01-31T16:00:30.005Z,3.33
2023-01-31T16:03:00.884Z,3.70
2023-01-31T16:05:32.626Z,3.42
2023-01-31T16:08:01.807Z,3.63
2023-01-31T16:10:30.148Z,3.85
2023-01-31T16:12:59.102Z,3.45
2023-01-31T16:15:29.352Z,3.63
2023-01-31T16:17:58.447Z,3.75
2023-01-31T16:20:42.043Z,3.72
2023-01-31T16:23:24.046Z,3.75
2023-01-31T16:26:03.690Z,4.07
2023-01-31T16:28:38.366Z,4.10
2023-01-31T16:31:08.093Z,3.40
2023-01-31T16:33:36.177Z,3.58
2023-01-31T16:36:14.289Z,3.70
2023-01-31T16:38:54.397Z,4.30
2023-01-31T16:41:46.275Z,3.83
2023-01-31T16:44:21.145Z,3.63
2023-01-31T16:46:50.421Z,5.00
2023-01-31T16:49:29.470Z,4.07
2023-01-31T16:52:16.662Z,4.40
2023-01-31T16:54:51.909Z,4.25
2023-01-31T16:57:27.047Z,4.53
2023-01-31T16:59:54.632Z,4.15
2023-01-31T17:02:23.816Z,4.20
2023-01-31T17:04:53.632Z,4.38
2023-01-31T17:07:24.372Z,3.97
2023-01-31T17:09:59.003Z,3.85
2023-01-31T17:12:32.048Z,4.32
2023-01-31T17:15:02.842Z,3.85
2023-01-31T17:17:34.469Z,4.40
2023-01-31T17:20:01.633Z,3.63
2023-01-31T17:22:28.727Z,3.42
2023-01-31T17:24:55.695Z,3.83
2023-01-31T17:27:23.145Z,4.10
2023-01-31T17:29:50.178Z,3.80
2023-01-31T17:32:19.758Z,4.43
2023-01-31T17:34:48.807Z,3.92
2023-01-31T17:37:20.802Z,3.92
2023-01-31T17:39:51.074Z,3.83
2023-01-31T17:42:21.119Z,3.72
2023-01-31T17:44:48.748Z,3.85
2023-01-31T17:47:17.808Z,3.70
2023-01-31T17:49:45.366Z,4.93
2023-01-31T17:52:12.367Z,4.25
2023-01-31T17:54:39.397Z,3.90
2023-01-31T17:57:06.322Z,4.28
2023-01-31T17:59:33.407Z,4.30
2023-01-31T18:02:01.238Z,3.97
2023-01-31T18:04:28.559Z,3.92
2023-01-31T18:06:55.663Z,4.03
2023-01-31T18:09:22.758Z,4.00
2023-01-31T18:11:49.701Z,3.67
2023-01-31T18:14:16.785Z,3.70
2023-01-31T18:16:43.819Z,3.88
2023-01-31T18:19:11.702Z,4.10
2023-01-31T18:21:43.912Z,4.10
2023-01-31T18:24:13.910Z,3.70
2023-01-31T18:26:40.903Z,4.18
2023-01-31T18:29:07.935Z,3.88
2023-01-31T18:31:35.154Z,3.80
2023-01-31T18:34:03.416Z,3.97
2023-01-31T18:36:30.314Z,3.88
2023-01-31T18:38:57.262Z,3.58
2023-01-31T18:41:24.530Z,4.55
2023-01-31T18:43:51.492Z,4.30
2023-01-31T18:46:18.675Z,4.13
2023-01-31T18:48:45.875Z,4.88
2023-01-31T18:51:14.212Z,3.72
2023-01-31T18:53:45.579Z,3.80
2023-01-31T18:56:15.044Z,4.07
2023-01-31T18:58:44.580Z,3.67
2023-01-31T19:01:14.460Z,4.03
2023-01-31T19:03:43.014Z,4.57
2023-01-31T19:06:13.399Z,4.20
2023-01-31T19:08:40.952Z,4.50
2023-01-31T19:11:12.671Z,4.60
2023-01-31T19:13:40.841Z,4.25
2023-01-31T19:16:10.317Z,4.20
2023-01-31T19:18:37.752Z,3.85
2023-01-31T19:21:22.145Z,3.58
2023-01-31T19:23:50.662Z,4.25
2023-01-31T19:26:18.369Z,3.95
2023-01-31T19:28:46.742Z,3.75
2023-01-31T19:31:16.744Z,4.18
2023-01-31T19:33:57.737Z,4.05
2023-01-31T19:36:27.350Z,3.85
2023-01-31T19:38:54.213Z,3.55
2023-01-31T19:41:23.167Z,4.25
2023-01-31T19:43:55.355Z,4.22
2023-01-31T19:46:24.111Z,3.92
2023-01-31T19:48:51.558Z,4.38
2023-01-31T19:51:20.327Z,3.67
2023-01-31T19:53:48.546Z,3.53
2023-01-31T19:56:16.782Z,3.60
2023-01-31T19:58:44.686Z,4.45
2023-01-31T20:01:16.135Z,3.55
2023-01-31T20:03:45.093Z,4.63
2023-01-31T20:06:15.270Z,3.90
2023-01-31T20:08:43.481Z,4.28
2023-01-31T20:11:11.051Z,3.70
2023-01-31T20:13:38.236Z,4.03
2023-01-31T20:16:09.169Z,3.85
2023-01-31T20:18:37.914Z,4.07
2023-01-31T20:21:06.342Z,3.50
2023-01-31T20:23:33.741Z,4.35
2023-01-31T20:26:00.914Z,3.95
2023-01-31T20:28:28.080Z,3.40
2023-01-31T20:30:55.092Z,3.53
2023-01-31T20:33:22.425Z,3.85
2023-01-31T20:35:49.814Z,3.88
2023-01-31T20:38:18.219Z,3.88
2023-01-31T20:40:53.185Z,3.75
2023-01-31T20:43:22.784Z,4.18
2023-01-31T20:45:50.188Z,4.32
2023-01-31T20:48:17.897Z,3.97
2023-01-31T20:50:53.426Z,4.10
2023-01-31T20:53:20.887Z,4.18
2023-01-31T20:55:59.221Z,4.00
2023-01-31T20:58:27.578Z,4.60
2023-01-31T21:00:56.241Z,4.25
2023-01-31T21:03:23.811Z,3.80
2023-01-31T21:05:51.175Z,3.80
2023-01-31T21:08:19.566Z,4.10
2023-01-31T21:10:51.279Z,3.95
2023-01-31T21:13:19.295Z,3.80
2023-01-31T21:15:54.091Z,3.78
2023-01-31T21:18:22.162Z,3.78
2023-01-31T21:20:49.333Z,3.90
2023-01-31T21:23:16.273Z,3.85
2023-01-31T21:25:43.351Z,4.07
2023-01-31T21:28:10.439Z,4.50
2023-01-31T21:30:37.625Z,4.07
2023-01-31T21:33:04.730Z,3.92
2023-01-31T21:35:31.777Z,3.90
2023-01-31T21:37:58.829Z,4.00
2023-01-31T21:40:25.825Z,4.90
2023-01-31T21:42:53.855Z,4.28
2023-01-31T21:45:39.728Z,3.70
2023-01-31T21:48:27.872Z,3.60
2023-01-31T21:50:56.136Z,4.03
2023-01-31T21:53:23.232Z,3.70
2023-01-31T21:55:50.101Z,3.50
2023-01-31T21:58:17.044Z,3.67
2023-01-31T22:00:44.225Z,3.22
2023-01-31T22:03:11.792Z,3.35
2023-01-31T22:05:39.194Z,3.03
2023-01-31T22:08:06.287Z,3.55
2023-01-31T22:10:33.354Z,3.20
2023-01-31T22:13:00.238Z,3.17
2023-01-31T22:15:27.309Z,3.22
2023-01-31T22:17:54.275Z,3.08
2023-01-31T22:20:21.686Z,2.70
2023-01-31T22:22:49.068Z,3.35
2023-01-31T22:25:16.113Z,3.95
2023-01-31T22:27:43.199Z,5.05
2023-01-31T22:30:16.139Z,4.80
2023-01-31T22:32:54.955Z,4.93
2023-01-31T22:35:22.184Z,4.03
2023-01-31T22:37:49.268Z,4.93
2023-01-31T22:40:17.785Z,4.10
2023-01-31T22:42:45.108Z,4.20
2023-01-31T22:45:12.082Z,4.30
2023-01-31T22:47:39.301Z,4.75
2023-01-31T22:50:06.772Z,4.22
2023-01-31T22:52:33.702Z,3.90
2023-01-31T22:55:00.660Z,3.92
2023-01-31T22:57:27.833Z,5.05
2023-01-31T22:59:54.866Z,5.80
2023-01-31T23:02:22.118Z,5.13
2023-01-31T23:04:51.534Z,6.45
2023-01-31T23:07:18.478Z,8.13
2023-01-31T23:09:45.436Z,7.13
2023-01-31T23:12:13.002Z,6.13
2023-01-31T23:14:41.750Z,5.55
2023-01-31T23:17:28.916Z,5.10
2023-01-31T23:19:56.099Z,4.90
2023-01-31T23:22:23.199Z,4.72
2023-01-31T23:24:50.163Z,4.82
2023-01-31T23:27:17.233Z,3.17
2023-01-31T23:29:44.210Z,3.90
2023-01-31T23:32:11.793Z,3.92
2023-01-31T23:34:38.821Z,3.83
2023-01-31T23:37:06.049Z,3.70
2023-01-31T23:39:33.079Z,3.80
2023-01-31T23:41:59.955Z,3.60
2023-01-31T23:44:27.139Z,3.50
2023-01-31T23:46:54.338Z,3.90
2023-01-31T23:49:21.567Z,3.60
2023-01-31T23:51:48.541Z,3.42
2023-01-31T23:54:15.550Z,3.50
2023-01-31T23:56:42.621Z,3.28
2023-01-31T23:59:09.867Z,3.00
